Lookout, Wyoming
Current Conditions -  °F | °C
As of 8:53 PM on Friday 24 Oct 2014 (Local Time) from KLAR Reporting Station
Clear Clear  
Wind Chill: 11°   Ceiling: Unl
Heat Index: 11°   Visibility: 10mi
Dew Point: -6°   Wind: 5mph
Humidity: 30%   Direction: 150°SSE
Pressure: 30.31"   Gusts: NA
Location:  41.5395°N, 105.861°W
Report Text: KLAR 250253Z AUTO 15004KT 10SM CLR 11/M06 A3031 RMK AO2 SLP187 T01111061 53012
Loading
Personal Weather Stations






























Interactive Weather Map
Tropical Storm Tracking
New forecast layout! Learn more

10-Day Weather Forecast

Advertisements
Track Severe Weather on mobile